Time;durP1;ratioP1;P1;durP2;ratioP2;P2;SDS_P1;SDS_P2;PMS_P1;PMS_P2;Temp;Humidity;BMP_temperature;BMP_pressure;BME280_temperature;BME280_humidity;BME280_pressure;Samples;Min_cycle;Max_cycle;Signal;HPM_P1;HPM_P2
2023/05/26 00:02:14;;;;;;;23.25;12.27;;;;;;;;;;5094095;28;20057;-88
2023/05/26 00:04:43;;;;;;;21.33;11.95;;;;;;;;;;5094507;28;20063;-89
2023/05/26 00:07:10;;;;;;;24.05;12.55;;;;;;;;;;5094299;28;20052;-90
2023/05/26 00:09:37;;;;;;;19.38;11.38;;;;;;;;;;5094239;28;20044;-89
2023/05/26 00:12:05;;;;;;;15.85;11.13;;;;;;;;;;5094089;28;20043;-90
2023/05/26 00:14:33;;;;;;;20.17;11.70;;;;;;;;;;5094053;28;20048;-89
2023/05/26 00:17:03;;;;;;;18.20;11.38;;;;;;;;;;5094092;28;20107;-89
2023/05/26 00:19:31;;;;;;;25.48;12.65;;;;;;;;;;5094921;28;20060;-89
2023/05/26 00:21:59;;;;;;;17.13;12.15;;;;;;;;;;5094017;28;20048;-90
2023/05/26 00:24:26;;;;;;;19.77;11.85;;;;;;;;;;5093771;28;20079;-90
2023/05/26 00:26:53;;;;;;;25.70;12.43;;;;;;;;;;5093887;28;20416;-90
2023/05/26 00:29:21;;;;;;;18.30;12.07;;;;;;;;;;5094729;28;20043;-90
2023/05/26 00:31:54;;;;;;;23.15;12.77;;;;;;;;;;5094980;28;20126;-89
2023/05/26 00:34:21;;;;;;;19.40;11.73;;;;;;;;;;5093739;28;20135;-89
2023/05/26 00:36:49;;;;;;;16.38;12.10;;;;;;;;;;5093713;28;20048;-89
2023/05/26 00:39:16;;;;;;;23.30;12.45;;;;;;;;;;5093552;28;20428;-89
2023/05/26 00:41:43;;;;;;;18.70;11.43;;;;;;;;;;5093477;28;20052;-89
2023/05/26 00:44:10;;;;;;;21.33;12.77;;;;;;;;;;5093654;28;20056;-90
2023/05/26 00:46:38;;;;;;;21.23;12.10;;;;;;;;;;5093425;28;20056;-90
2023/05/26 00:49:05;;;;;;;23.10;12.52;;;;;;;;;;5093265;28;20048;-90
2023/05/26 00:51:33;;;;;;;20.83;12.65;;;;;;;;;;5093409;28;20048;-89
2023/05/26 00:54:00;;;;;;;17.52;11.98;;;;;;;;;;5093582;28;20073;-89
2023/05/26 00:56:28;;;;;;;18.63;11.63;;;;;;;;;;5101021;28;20044;-89
2023/05/26 00:58:56;;;;;;;14.70;11.65;;;;;;;;;;5115245;28;20044;-88
2023/05/26 01:01:25;;;;;;;19.13;12.73;;;;;;;;;;5098234;28;20071;-89
2023/05/26 01:03:52;;;;;;;20.67;11.05;;;;;;;;;;5094167;28;20507;-89
2023/05/26 01:06:22;;;;;;;18.42;11.60;;;;;;;;;;5093035;28;20051;-90
2023/05/26 01:08:49;;;;;;;21.85;12.35;;;;;;;;;;5093937;28;20048;-88
2023/05/26 01:11:21;;;;;;;17.95;11.88;;;;;;;;;;5093057;28;20480;-89
2023/05/26 01:13:53;;;;;;;22.88;12.63;;;;;;;;;;5094068;28;20051;-89
2023/05/26 01:16:22;;;;;;;23.20;13.70;;;;;;;;;;5091614;28;20083;-88
2023/05/26 01:19:00;;;;;;;24.38;13.38;;;;;;;;;;5093731;28;20071;-88
2023/05/26 01:21:29;;;;;;;21.45;12.75;;;;;;;;;;5093727;28;20056;-89
2023/05/26 01:24:15;;;;;;;22.77;13.68;;;;;;;;;;5092625;28;20082;-88
2023/05/26 01:26:49;;;;;;;18.15;12.05;;;;;;;;;;5092777;28;20056;-88
2023/05/26 01:29:18;;;;;;;23.50;13.40;;;;;;;;;;5092668;28;20048;-88
2023/05/26 01:31:46;;;;;;;19.92;13.20;;;;;;;;;;5092695;28;20048;-89
2023/05/26 01:34:13;;;;;;;22.52;12.85;;;;;;;;;;5093608;28;20076;-89
2023/05/26 01:36:40;;;;;;;19.40;12.57;;;;;;;;;;5092569;28;20078;-89
2023/05/26 01:39:08;;;;;;;20.10;13.13;;;;;;;;;;5092462;28;20059;-89
2023/05/26 01:41:45;;;;;;;21.15;13.60;;;;;;;;;;5092290;28;20097;-89
2023/05/26 01:44:15;;;;;;;25.30;13.93;;;;;;;;;;5093384;28;20079;-88
2023/05/26 01:46:45;;;;;;;21.63;14.05;;;;;;;;;;5092556;28;20079;-89
2023/05/26 01:49:14;;;;;;;28.92;14.85;;;;;;;;;;5092629;28;20457;-88
2023/05/26 01:51:50;;;;;;;25.83;14.45;;;;;;;;;;5092565;28;20131;-89
2023/05/26 01:54:20;;;;;;;24.38;13.73;;;;;;;;;;5092814;28;20131;-89
2023/05/26 01:56:47;;;;;;;25.65;14.02;;;;;;;;;;5093832;28;20048;-88
2023/05/26 01:59:16;;;;;;;22.45;13.93;;;;;;;;;;5092452;28;20047;-88
2023/05/26 02:01:43;;;;;;;25.75;13.48;;;;;;;;;;5092288;28;20385;-87
2023/05/26 02:04:11;;;;;;;22.60;14.02;;;;;;;;;;5092306;28;20044;-88
2023/05/26 02:06:39;;;;;;;22.92;12.80;;;;;;;;;;5092202;28;20557;-87
2023/05/26 02:09:07;;;;;;;22.25;13.50;;;;;;;;;;5092316;28;20073;-87
2023/05/26 02:11:34;;;;;;;22.98;13.38;;;;;;;;;;5092825;28;20078;-87
2023/05/26 02:14:02;;;;;;;24.98;14.13;;;;;;;;;;5107618;28;20054;-88
2023/05/26 02:16:29;;;;;;;24.13;13.70;;;;;;;;;;5099680;28;20051;-88
2023/05/26 02:18:57;;;;;;;25.45;12.98;;;;;;;;;;5091580;28;20059;-88
2023/05/26 02:21:24;;;;;;;26.13;14.00;;;;;;;;;;5092732;28;20437;-88
2023/05/26 02:23:51;;;;;;;20.77;13.27;;;;;;;;;;5092081;28;20102;-87
2023/05/26 02:26:19;;;;;;;24.17;14.25;;;;;;;;;;5092195;28;20052;-87
2023/05/26 02:28:46;;;;;;;25.27;13.75;;;;;;;;;;5095596;28;20051;-88
2023/05/26 02:31:13;;;;;;;21.38;13.30;;;;;;;;;;5096030;28;20507;-88
2023/05/26 02:33:41;;;;;;;21.75;12.65;;;;;;;;;;5095987;28;20534;-89
2023/05/26 02:36:09;;;;;;;22.35;13.70;;;;;;;;;;5095916;28;20113;-87
2023/05/26 02:38:36;;;;;;;21.30;13.80;;;;;;;;;;5096161;28;20086;-88
2023/05/26 02:41:03;;;;;;;19.35;13.05;;;;;;;;;;5096963;28;20087;-89
2023/05/26 02:43:30;;;;;;;22.60;13.70;;;;;;;;;;5095875;28;20416;-88
2023/05/26 02:45:57;;;;;;;24.63;13.85;;;;;;;;;;5095946;28;20462;-88
2023/05/26 02:48:25;;;;;;;21.48;13.30;;;;;;;;;;5095774;28;20083;-87
2023/05/26 02:50:55;;;;;;;22.10;14.38;;;;;;;;;;5095886;28;20481;-88
2023/05/26 02:53:22;;;;;;;25.95;13.68;;;;;;;;;;5095632;28;20090;-88
2023/05/26 02:55:50;;;;;;;22.23;13.07;;;;;;;;;;5095571;28;20445;-88
2023/05/26 02:58:17;;;;;;;20.58;14.02;;;;;;;;;;5096493;28;20056;-88
2023/05/26 03:00:45;;;;;;;24.33;13.35;;;;;;;;;;5096428;28;20040;-88
2023/05/26 03:03:13;;;;;;;20.08;13.48;;;;;;;;;;5096549;28;20079;-88
2023/05/26 03:05:41;;;;;;;20.55;12.02;;;;;;;;;;5095600;28;20068;-89
2023/05/26 03:08:08;;;;;;;19.33;12.55;;;;;;;;;;5095439;28;20044;-87
2023/05/26 03:10:36;;;;;;;24.38;12.07;;;;;;;;;;5095903;28;20163;-89
2023/05/26 03:13:03;;;;;;;18.67;12.68;;;;;;;;;;5096844;28;20055;-88
2023/05/26 03:15:35;;;;;;;23.38;13.88;;;;;;;;;;5095315;28;20484;-88
2023/05/26 03:18:02;;;;;;;19.17;12.70;;;;;;;;;;5095406;28;20048;-88
2023/05/26 03:20:30;;;;;;;20.08;13.23;;;;;;;;;;5094998;28;20056;-85
2023/05/26 03:22:57;;;;;;;22.38;12.70;;;;;;;;;;5095190;28;20504;-87
2023/05/26 03:25:24;;;;;;;20.80;13.13;;;;;;;;;;5094906;28;20136;-87
2023/05/26 03:27:52;;;;;;;21.23;12.45;;;;;;;;;;5097127;28;20048;-87
2023/05/26 03:30:19;;;;;;;19.85;12.40;;;;;;;;;;5117403;28;20028;-88
2023/05/26 03:32:46;;;;;;;18.92;13.13;;;;;;;;;;5101734;28;20044;-87
2023/05/26 03:35:14;;;;;;;21.80;13.35;;;;;;;;;;5096066;28;20040;-87
2023/05/26 03:37:41;;;;;;;23.17;13.98;;;;;;;;;;5094642;28;20063;-87
2023/05/26 03:40:09;;;;;;;22.45;13.80;;;;;;;;;;5094525;28;20079;-87
2023/05/26 03:42:36;;;;;;;27.45;13.88;;;;;;;;;;5094551;28;20102;-88
2023/05/26 03:45:04;;;;;;;22.95;14.35;;;;;;;;;;5094641;28;20070;-89
2023/05/26 03:47:31;;;;;;;22.65;13.02;;;;;;;;;;5094580;28;20188;-88
2023/05/26 03:49:59;;;;;;;20.90;12.85;;;;;;;;;;5095652;28;20044;-88
2023/05/26 03:52:26;;;;;;;23.92;14.10;;;;;;;;;;5095559;28;20044;-89
2023/05/26 03:54:53;;;;;;;24.20;15.10;;;;;;;;;;5094454;28;20444;-89
2023/05/26 03:57:20;;;;;;;24.80;14.43;;;;;;;;;;5095222;28;20086;-88
2023/05/26 03:59:48;;;;;;;32.67;16.27;;;;;;;;;;5094297;28;20553;-88
2023/05/26 04:02:16;;;;;;;25.35;15.65;;;;;;;;;;5094153;28;20083;-88
2023/05/26 04:04:43;;;;;;;25.05;15.93;;;;;;;;;;5094164;28;20403;-88
2023/05/26 04:07:11;;;;;;;32.97;17.13;;;;;;;;;;5094257;28;20051;-88
2023/05/26 04:09:39;;;;;;;22.85;15.20;;;;;;;;;;5093953;28;20044;-88
2023/05/26 04:12:06;;;;;;;28.98;16.50;;;;;;;;;;5094143;28;20090;-88
2023/05/26 04:14:33;;;;;;;29.60;17.73;;;;;;;;;;5094856;28;20105;-88
2023/05/26 04:17:01;;;;;;;35.28;19.38;;;;;;;;;;5094030;28;20048;-88
2023/05/26 04:19:28;;;;;;;25.40;16.50;;;;;;;;;;5093602;28;20066;-88
2023/05/26 04:21:56;;;;;;;28.98;15.73;;;;;;;;;;5093663;28;20093;-88
2023/05/26 04:24:23;;;;;;;30.17;18.30;;;;;;;;;;5094718;28;20055;-87
2023/05/26 04:26:52;;;;;;;28.58;17.95;;;;;;;;;;5097437;28;20106;-88
2023/05/26 04:29:20;;;;;;;27.52;17.65;;;;;;;;;;5093850;28;20504;-89
2023/05/26 04:31:47;;;;;;;27.67;17.73;;;;;;;;;;5093784;28;20077;-89
2023/05/26 04:34:14;;;;;;;27.48;16.33;;;;;;;;;;5093475;28;20062;-88
2023/05/26 04:36:42;;;;;;;29.42;15.57;;;;;;;;;;5093581;28;20076;-88
2023/05/26 04:39:10;;;;;;;30.65;16.30;;;;;;;;;;5093697;28;20450;-88
2023/05/26 04:41:38;;;;;;;28.20;17.45;;;;;;;;;;5093550;28;20044;-88
2023/05/26 04:44:05;;;;;;;32.47;17.23;;;;;;;;;;5101820;28;20045;-87
2023/05/26 04:46:37;;;;;;;26.98;16.58;;;;;;;;;;5104353;28;20043;-87
2023/05/26 04:49:07;;;;;;;24.92;15.65;;;;;;;;;;5093501;28;20488;-88
2023/05/26 04:51:35;;;;;;;25.50;13.80;;;;;;;;;;5093095;28;20132;-89
2023/05/26 04:54:02;;;;;;;20.73;13.73;;;;;;;;;;5094412;28;20093;-87
2023/05/26 04:56:30;;;;;;;18.45;12.77;;;;;;;;;;5093049;28;20044;-89
2023/05/26 04:58:58;;;;;;;18.23;12.63;;;;;;;;;;5094185;28;20456;-89
2023/05/26 05:01:26;;;;;;;17.13;11.73;;;;;;;;;;5093904;28;20044;-89
2023/05/26 05:03:53;;;;;;;16.50;11.70;;;;;;;;;;5094251;28;20049;-87
2023/05/26 05:06:20;;;;;;;14.82;11.25;;;;;;;;;;5092646;28;20059;-89
2023/05/26 05:08:48;;;;;;;19.40;12.52;;;;;;;;;;5093273;28;20064;-88
2023/05/26 05:11:15;;;;;;;19.75;10.50;;;;;;;;;;5092983;28;20039;-88
2023/05/26 05:13:43;;;;;;;27.23;12.48;;;;;;;;;;5093489;28;20062;-89
2023/05/26 05:16:10;;;;;;;30.02;14.00;;;;;;;;;;5092966;28;20059;-89
2023/05/26 05:18:37;;;;;;;27.33;12.68;;;;;;;;;;5093072;28;20052;-89
2023/05/26 05:21:05;;;;;;;42.20;15.18;;;;;;;;;;5092541;28;20055;-89
2023/05/26 05:23:34;;;;;;;37.60;13.40;;;;;;;;;;5094045;28;20059;-89
2023/05/26 05:26:01;;;;;;;30.40;12.55;;;;;;;;;;5093541;28;20071;-90
2023/05/26 05:28:29;;;;;;;36.70;12.57;;;;;;;;;;5092755;28;20071;-90
2023/05/26 05:30:57;;;;;;;32.83;11.65;;;;;;;;;;5092610;28;20048;-89
2023/05/26 05:33:25;;;;;;;24.23;10.77;;;;;;;;;;5092620;28;20474;-90
2023/05/26 05:35:52;;;;;;;27.13;11.05;;;;;;;;;;5093694;28;20143;-89
2023/05/26 05:38:20;;;;;;;20.50;8.98;;;;;;;;;;5092592;28;20051;-90
2023/05/26 05:40:47;;;;;;;26.02;9.40;;;;;;;;;;5092489;28;20044;-88
2023/05/26 05:43:15;;;;;;;18.10;8.02;;;;;;;;;;5093398;28;20093;-91
2023/05/26 05:45:42;;;;;;;26.33;9.98;;;;;;;;;;5092619;28;20040;-90
2023/05/26 05:48:09;;;;;;;24.65;8.23;;;;;;;;;;5092972;28;20520;-91
2023/05/26 05:50:37;;;;;;;20.35;8.52;;;;;;;;;;5092562;28;20051;-90
2023/05/26 05:53:04;;;;;;;23.58;10.23;;;;;;;;;;5092496;28;20056;-91
2023/05/26 05:55:31;;;;;;;22.60;10.40;;;;;;;;;;5092634;28;20069;-90
2023/05/26 05:57:59;;;;;;;34.03;11.48;;;;;;;;;;5092639;28;20163;-90
2023/05/26 06:00:26;;;;;;;30.42;11.65;;;;;;;;;;5107788;28;20028;-91
2023/05/26 06:02:54;;;;;;;25.88;10.55;;;;;;;;;;5113670;28;20048;-91
2023/05/26 06:05:21;;;;;;;16.75;8.75;;;;;;;;;;5096830;28;20047;-91
2023/05/26 06:07:49;;;;;;;21.33;9.63;;;;;;;;;;5096488;28;20079;-90
2023/05/26 06:10:16;;;;;;;19.35;8.73;;;;;;;;;;5096644;28;20093;-90
2023/05/26 06:12:44;;;;;;;18.67;10.00;;;;;;;;;;5096630;28;20090;-90
2023/05/26 06:15:11;;;;;;;25.42;11.07;;;;;;;;;;5096530;28;20040;-91
2023/05/26 06:17:39;;;;;;;27.90;10.55;;;;;;;;;;5096596;28;20518;-92
2023/05/26 06:20:06;;;;;;;30.10;11.15;;;;;;;;;;5096337;28;20566;-91
2023/05/26 06:22:36;;;;;;;26.45;10.77;;;;;;;;;;5096276;28;20052;-90
2023/05/26 06:25:04;;;;;;;25.70;10.38;;;;;;;;;;5096270;28;20040;-92
2023/05/26 06:27:31;;;;;;;24.83;10.63;;;;;;;;;;5096039;28;20044;-90
2023/05/26 06:29:58;;;;;;;34.70;12.85;;;;;;;;;;5096389;28;20044;-91
2023/05/26 06:32:26;;;;;;;31.25;10.27;;;;;;;;;;5096525;28;20449;-90
2023/05/26 06:34:53;;;;;;;44.45;12.68;;;;;;;;;;5096159;28;20059;-88
2023/05/26 06:37:20;;;;;;;37.05;10.65;;;;;;;;;;5096214;28;20048;-90
2023/05/26 06:39:47;;;;;;;21.00;9.45;;;;;;;;;;5095969;28;20465;-89
2023/05/26 06:42:15;;;;;;;29.90;9.40;;;;;;;;;;5095894;28;20089;-88
2023/05/26 06:44:42;;;;;;;27.65;9.07;;;;;;;;;;5095558;28;20109;-89
2023/05/26 06:47:09;;;;;;;19.90;6.05;;;;;;;;;;5095691;28;20052;-88
2023/05/26 06:49:37;;;;;;;16.17;6.00;;;;;;;;;;5095804;28;20051;-88
2023/05/26 06:52:04;;;;;;;14.07;5.50;;;;;;;;;;5095586;28;20066;-88
2023/05/26 06:54:31;;;;;;;14.07;5.35;;;;;;;;;;5095657;28;20048;-92
2023/05/26 06:57:00;;;;;;;14.07;4.80;;;;;;;;;;5095920;28;20044;-90
2023/05/26 06:59:28;;;;;;;14.05;4.97;;;;;;;;;;5095520;28;20083;-90
2023/05/26 07:01:55;;;;;;;15.85;5.50;;;;;;;;;;5095857;28;20044;-93
2023/05/26 07:04:22;;;;;;;17.55;5.25;;;;;;;;;;5095179;28;20127;-88
2023/05/26 07:06:49;;;;;;;15.18;5.32;;;;;;;;;;5095536;28;20472;-87
2023/05/26 07:09:17;;;;;;;14.93;5.40;;;;;;;;;;5095913;28;20056;-91
2023/05/26 07:11:44;;;;;;;13.57;5.07;;;;;;;;;;5095543;28;20119;-89
2023/05/26 07:14:11;;;;;;;12.63;4.85;;;;;;;;;;5095446;28;20052;-91
2023/05/26 07:16:39;;;;;;;15.65;5.38;;;;;;;;;;5107186;28;20052;-90
2023/05/26 07:19:06;;;;;;;13.73;5.35;;;;;;;;;;5099122;28;20177;-93
2023/05/26 07:21:34;;;;;;;13.93;4.75;;;;;;;;;;5095745;28;20050;-93
2023/05/26 07:24:01;;;;;;;20.02;4.93;;;;;;;;;;5095620;28;20048;-90
2023/05/26 07:26:28;;;;;;;11.60;4.85;;;;;;;;;;5095493;28;20404;-96
2023/05/26 07:28:55;;;;;;;16.00;5.85;;;;;;;;;;5100110;28;20105;-95
2023/05/26 07:31:25;;;;;;;13.68;5.05;;;;;;;;;;5098435;28;20097;-93
2023/05/26 07:33:52;;;;;;;13.52;4.85;;;;;;;;;;5095999;28;20048;-95
2023/05/26 07:36:22;;;;;;;12.05;5.30;;;;;;;;;;5098431;28;20059;-91
2023/05/26 07:38:49;;;;;;;14.48;5.28;;;;;;;;;;5101438;28;20257;-91
2023/05/26 07:41:17;;;;;;;13.82;5.53;;;;;;;;;;5098700;28;20064;-94
2023/05/26 07:43:44;;;;;;;14.18;5.20;;;;;;;;;;5095223;28;20052;-92
2023/05/26 07:46:12;;;;;;;12.95;5.15;;;;;;;;;;5094725;28;20048;-90
2023/05/26 07:48:39;;;;;;;10.85;5.13;;;;;;;;;;5095118;28;20052;-91
2023/05/26 07:51:06;;;;;;;13.40;4.97;;;;;;;;;;5094782;28;20048;-86
2023/05/26 07:53:35;;;;;;;12.10;4.65;;;;;;;;;;5094872;28;20084;-87
2023/05/26 07:56:02;;;;;;;9.48;4.93;;;;;;;;;;5094558;28;20125;-89
2023/05/26 07:58:29;;;;;;;13.43;5.32;;;;;;;;;;5095034;28;20196;-88
2023/05/26 08:00:57;;;;;;;11.18;4.70;;;;;;;;;;5094881;28;20087;-94
2023/05/26 08:03:24;;;;;;;14.02;5.10;;;;;;;;;;5095062;28;20487;-90
2023/05/26 08:05:52;;;;;;;16.42;5.97;;;;;;;;;;5094906;28;20047;-87
2023/05/26 08:08:19;;;;;;;14.50;4.70;;;;;;;;;;5094282;28;20125;-86
2023/05/26 08:10:46;;;;;;;18.98;5.40;;;;;;;;;;5094413;28;20449;-85
2023/05/26 08:13:14;;;;;;;16.63;5.20;;;;;;;;;;5094819;28;20055;-89
2023/05/26 08:15:41;;;;;;;13.68;4.35;;;;;;;;;;5094481;28;20094;-87
2023/05/26 08:18:08;;;;;;;13.13;4.93;;;;;;;;;;5094875;28;20059;-88
2023/05/26 08:20:35;;;;;;;11.13;4.75;;;;;;;;;;5094488;28;20552;-91
2023/05/26 08:23:03;;;;;;;12.82;4.78;;;;;;;;;;5094139;28;20048;-88
2023/05/26 08:25:31;;;;;;;12.25;4.47;;;;;;;;;;5093356;28;20093;-91
2023/05/26 08:27:58;;;;;;;11.77;4.43;;;;;;;;;;5094205;28;20056;-86
2023/05/26 08:30:26;;;;;;;10.68;3.67;;;;;;;;;;5094304;28;20075;-89
2023/05/26 08:32:53;;;;;;;12.20;4.65;;;;;;;;;;5110228;28;20048;-86
2023/05/26 08:35:21;;;;;;;12.30;4.50;;;;;;;;;;5094173;28;20123;-90
2023/05/26 08:37:48;;;;;;;14.60;4.40;;;;;;;;;;5093986;28;20051;-90
2023/05/26 08:40:16;;;;;;;12.98;4.47;;;;;;;;;;5093484;28;20040;-87
2023/05/26 08:42:45;;;;;;;12.73;4.18;;;;;;;;;;5093538;28;20095;-92
2023/05/26 08:45:15;;;;;;;16.40;4.55;;;;;;;;;;5093873;28;20095;-88
2023/05/26 08:47:43;;;;;;;13.90;4.38;;;;;;;;;;5093828;28;20075;-89
2023/05/26 08:50:11;;;;;;;14.18;4.32;;;;;;;;;;5093660;28;20699;-87
2023/05/26 08:52:39;;;;;;;16.45;4.47;;;;;;;;;;5093927;28;20044;-89
2023/05/26 08:55:27;;;;;;;15.27;4.25;;;;;;;;;;5094256;28;20048;-91
2023/05/26 08:57:55;;;;;;;11.45;4.40;;;;;;;;;;5094274;28;20049;-87
2023/05/26 09:00:23;;;;;;;11.43;4.15;;;;;;;;;;5094305;28;20048;-86
2023/05/26 09:02:51;;;;;;;12.50;4.32;;;;;;;;;;5094293;28;20166;-88
2023/05/26 09:05:18;;;;;;;13.35;4.47;;;;;;;;;;5093448;28;20051;-87
2023/05/26 09:07:45;;;;;;;13.45;4.10;;;;;;;;;;5092441;28;20080;-88
2023/05/26 09:10:32;;;;;;;14.55;3.97;;;;;;;;;;5092892;28;20086;-85
2023/05/26 09:13:03;;;;;;;13.02;3.97;;;;;;;;;;5093347;28;20040;-90
2023/05/26 09:15:30;;;;;;;9.15;4.00;;;;;;;;;;5093350;28;20051;-86
2023/05/26 09:18:08;;;;;;;12.63;3.92;;;;;;;;;;5093451;28;20044;-90
2023/05/26 09:20:43;;;;;;;10.93;4.07;;;;;;;;;;5090657;28;20058;-87
2023/05/26 09:23:11;;;;;;;13.27;4.07;;;;;;;;;;5093310;28;20151;-87
2023/05/26 09:25:40;;;;;;;14.60;4.07;;;;;;;;;;5094170;28;20500;-89
2023/05/26 09:28:09;;;;;;;13.90;4.10;;;;;;;;;;5093299;28;20048;-89
2023/05/26 09:30:38;;;;;;;14.55;4.53;;;;;;;;;;5093003;28;20145;-88
2023/05/26 09:33:08;;;;;;;11.95;4.10;;;;;;;;;;5092900;28;20048;-87
2023/05/26 09:35:36;;;;;;;14.68;4.57;;;;;;;;;;5092911;28;20488;-90
2023/05/26 09:38:05;;;;;;;11.35;3.80;;;;;;;;;;5091955;28;20105;-87
2023/05/26 09:40:32;;;;;;;11.98;3.60;;;;;;;;;;5092808;28;20101;-89
2023/05/26 09:43:00;;;;;;;12.48;4.05;;;;;;;;;;5093003;28;20070;-86
2023/05/26 09:45:35;;;;;;;13.65;4.63;;;;;;;;;;5094548;28;20093;-88
2023/05/26 09:48:06;;;;;;;14.57;4.93;;;;;;;;;;5106618;28;20057;-91
2023/05/26 09:50:35;;;;;;;14.82;3.80;;;;;;;;;;5099515;28;20052;-89
2023/05/26 09:53:02;;;;;;;14.32;4.07;;;;;;;;;;5092673;28;20090;-89
2023/05/26 09:55:30;;;;;;;12.70;4.78;;;;;;;;;;5092568;28;20078;-88
2023/05/26 09:58:05;;;;;;;14.98;4.70;;;;;;;;;;5092830;28;20106;-89
2023/05/26 10:00:36;;;;;;;9.68;3.88;;;;;;;;;;5092924;28;20451;-90
2023/05/26 10:03:04;;;;;;;17.05;4.75;;;;;;;;;;5092670;28;20051;-90
2023/05/26 10:05:38;;;;;;;13.13;4.13;;;;;;;;;;5092584;28;20044;-88
2023/05/26 10:08:06;;;;;;;12.98;4.15;;;;;;;;;;5093073;28;20078;-90
2023/05/26 10:10:34;;;;;;;16.67;4.53;;;;;;;;;;5092665;28;20051;-88
2023/05/26 10:13:03;;;;;;;12.98;3.90;;;;;;;;;;5092636;28;20450;-90
2023/05/26 10:15:31;;;;;;;19.80;5.47;;;;;;;;;;5092492;28;20105;-86
2023/05/26 10:18:00;;;;;;;13.82;3.78;;;;;;;;;;5094242;28;20044;-92
2023/05/26 10:20:28;;;;;;;11.63;4.00;;;;;;;;;;5092506;28;20416;-92
2023/05/26 10:23:03;;;;;;;17.77;4.10;;;;;;;;;;5092728;28;20131;-89
2023/05/26 10:25:46;;;;;;;9.30;3.40;;;;;;;;;;5092609;28;20052;-90
2023/05/26 10:28:25;;;;;;;12.32;3.60;;;;;;;;;;5092141;28;20048;-90
2023/05/26 10:31:00;;;;;;;10.07;3.47;;;;;;;;;;5092608;28;20066;-87
2023/05/26 10:33:43;;;;;;;11.95;4.10;;;;;;;;;;5092236;28;20074;-87
2023/05/26 10:36:18;;;;;;;14.15;4.00;;;;;;;;;;5093194;28;20048;-87
2023/05/26 10:38:46;;;;;;;11.68;3.55;;;;;;;;;;5092387;28;20044;-88
2023/05/26 10:41:30;;;;;;;15.88;4.10;;;;;;;;;;5091912;28;20068;-90
2023/05/26 10:43:57;;;;;;;9.88;3.40;;;;;;;;;;5093121;28;20048;-89
2023/05/26 10:46:36;;;;;;;12.38;3.80;;;;;;;;;;5092348;28;20083;-89
2023/05/26 10:49:19;;;;;;;10.20;3.83;;;;;;;;;;5094720;28;20105;-86
2023/05/26 10:51:50;;;;;;;16.65;4.03;;;;;;;;;;5095767;28;20075;-89
2023/05/26 10:54:21;;;;;;;16.08;3.63;;;;;;;;;;5096016;28;20105;-88
2023/05/26 10:56:50;;;;;;;14.10;4.22;;;;;;;;;;5096333;28;20052;-90
2023/05/26 10:59:29;;;;;;;11.57;3.60;;;;;;;;;;5095667;28;20044;-87
2023/05/26 11:02:00;;;;;;;9.77;3.35;;;;;;;;;;5095729;28;20090;-91
2023/05/26 11:04:40;;;;;;;12.35;3.63;;;;;;;;;;5109576;28;20078;-89
2023/05/26 11:07:16;;;;;;;10.15;3.42;;;;;;;;;;5097259;28;20492;-90
2023/05/26 11:09:56;;;;;;;10.95;3.88;;;;;;;;;;5095771;28;20075;-91
2023/05/26 11:12:26;;;;;;;11.13;3.63;;;;;;;;;;5095785;28;20147;-95
2023/05/26 11:14:54;;;;;;;13.48;3.60;;;;;;;;;;5095934;28;20466;-91
2023/05/26 11:17:21;;;;;;;11.48;3.00;;;;;;;;;;5095954;28;20056;-92
2023/05/26 11:19:54;;;;;;;10.10;3.25;;;;;;;;;;5095483;28;20055;-87
2023/05/26 11:22:21;;;;;;;11.50;3.13;;;;;;;;;;5095710;28;20143;-88
2023/05/26 11:24:51;;;;;;;11.65;3.33;;;;;;;;;;5095910;28;20047;-90
2023/05/26 11:27:18;;;;;;;8.15;2.75;;;;;;;;;;5095990;28;20066;-94
2023/05/26 11:29:49;;;;;;;11.55;3.53;;;;;;;;;;5096403;28;20074;-91
2023/05/26 11:32:16;;;;;;;17.88;3.25;;;;;;;;;;5096460;28;20044;-87
2023/05/26 11:34:44;;;;;;;11.27;3.15;;;;;;;;;;5095777;28;20048;-90
2023/05/26 11:37:11;;;;;;;9.02;3.05;;;;;;;;;;5095924;28;20052;-90
2023/05/26 11:39:39;;;;;;;7.15;2.70;;;;;;;;;;5095668;28;20055;-94
2023/05/26 11:42:07;;;;;;;8.60;3.22;;;;;;;;;;5095758;28;20047;-93
2023/05/26 11:44:34;;;;;;;12.77;3.38;;;;;;;;;;5095075;28;20048;-90
2023/05/26 11:47:02;;;;;;;11.85;3.50;;;;;;;;;;5096388;28;20051;-87
2023/05/26 11:49:30;;;;;;;9.57;2.90;;;;;;;;;;5096131;28;20082;-92
2023/05/26 11:51:57;;;;;;;11.00;3.03;;;;;;;;;;5095223;28;20408;-87
2023/05/26 11:54:24;;;;;;;12.07;3.20;;;;;;;;;;5096484;28;20412;-90
2023/05/26 11:56:52;;;;;;;12.57;3.33;;;;;;;;;;5099265;28;20044;-89
2023/05/26 11:59:20;;;;;;;7.07;2.80;;;;;;;;;;5096506;28;20048;-90
2023/05/26 12:01:48;;;;;;;13.25;2.97;;;;;;;;;;5105166;28;20048;-93
2023/05/26 12:04:25;;;;;;;10.38;2.97;;;;;;;;;;5094846;28;20136;-89
2023/05/26 12:06:53;;;;;;;7.90;3.10;;;;;;;;;;5095362;28;20544;-92
2023/05/26 12:09:21;;;;;;;11.90;3.30;;;;;;;;;;5095012;28;20530;-90
2023/05/26 12:11:50;;;;;;;9.60;2.67;;;;;;;;;;5095199;28;20060;-89
2023/05/26 12:14:17;;;;;;;5.90;2.47;;;;;;;;;;5095684;28;20063;-87
2023/05/26 12:16:50;;;;;;;8.07;2.80;;;;;;;;;;5096990;28;20052;-94
2023/05/26 12:19:19;;;;;;;11.45;3.20;;;;;;;;;;5107148;28;20062;-92
2023/05/26 12:21:50;;;;;;;8.27;2.65;;;;;;;;;;5104094;28;20074;-91
2023/05/26 12:24:30;;;;;;;10.32;3.13;;;;;;;;;;5095790;28;20052;-92
2023/05/26 12:26:57;;;;;;;13.25;3.30;;;;;;;;;;5094195;28;20267;-89
2023/05/26 12:29:26;;;;;;;13.65;3.40;;;;;;;;;;5095013;28;20052;-91
2023/05/26 12:31:54;;;;;;;10.57;3.50;;;;;;;;;;5096585;28;20044;-88
2023/05/26 12:34:23;;;;;;;15.25;3.10;;;;;;;;;;5095281;28;20074;-88
2023/05/26 12:36:50;;;;;;;18.05;3.67;;;;;;;;;;5095907;28;20040;-87
2023/05/26 12:39:18;;;;;;;17.95;3.88;;;;;;;;;;5095489;28;20052;-91
2023/05/26 12:41:46;;;;;;;9.82;3.22;;;;;;;;;;5097313;28;20052;-89
2023/05/26 12:44:14;;;;;;;11.32;3.28;;;;;;;;;;5095141;28;20052;-90
2023/05/26 12:46:44;;;;;;;16.35;3.38;;;;;;;;;;5095545;28;20086;-88
2023/05/26 12:49:11;;;;;;;8.95;3.33;;;;;;;;;;5095353;28;20051;-90
2023/05/26 12:51:40;;;;;;;8.38;3.33;;;;;;;;;;5096005;28;20059;-89
2023/05/26 12:54:08;;;;;;;12.18;3.30;;;;;;;;;;5094421;28;20044;-89
2023/05/26 12:56:36;;;;;;;9.18;2.65;;;;;;;;;;5094044;28;20048;-90
2023/05/26 12:59:04;;;;;;;12.07;3.10;;;;;;;;;;5094681;28;20052;-89
2023/05/26 13:01:45;;;;;;;15.80;3.50;;;;;;;;;;5094082;28;20056;-88
2023/05/26 13:04:13;;;;;;;13.65;3.28;;;;;;;;;;5095814;28;20110;-86
2023/05/26 13:06:41;;;;;;;11.77;3.53;;;;;;;;;;5095502;28;20052;-90
2023/05/26 13:09:11;;;;;;;18.08;6.63;;;;;;;;;;5093653;28;20086;-88
2023/05/26 13:11:38;;;;;;;17.48;4.50;;;;;;;;;;5094080;28;20055;-89
2023/05/26 13:14:07;;;;;;;14.05;6.75;;;;;;;;;;5096393;28;20094;-90
2023/05/26 13:16:36;;;;;;;15.88;4.13;;;;;;;;;;5094054;28;20074;-91
2023/05/26 13:19:04;;;;;;;10.68;3.75;;;;;;;;;;5093171;28;20052;-84
2023/05/26 13:21:31;;;;;;;9.60;3.25;;;;;;;;;;5093829;28;20512;-89
2023/05/26 13:23:59;;;;;;;11.70;3.40;;;;;;;;;;5094199;28;20105;-90
2023/05/26 13:26:26;;;;;;;13.65;3.83;;;;;;;;;;5094022;28;20078;-90
2023/05/26 13:28:53;;;;;;;10.07;3.13;;;;;;;;;;5096089;28;20052;-92
2023/05/26 13:31:24;;;;;;;16.63;4.07;;;;;;;;;;5095766;28;20051;-90
2023/05/26 13:33:52;;;;;;;9.90;3.90;;;;;;;;;;5098008;28;20064;-88
2023/05/26 13:36:21;;;;;;;13.07;4.15;;;;;;;;;;5105732;28;20052;-87
2023/05/26 13:38:49;;;;;;;16.15;3.42;;;;;;;;;;5094682;28;20055;-91
2023/05/26 13:41:19;;;;;;;7.30;2.80;;;;;;;;;;5093105;28;20126;-91
2023/05/26 13:43:46;;;;;;;12.75;3.65;;;;;;;;;;5093282;28;20048;-91
2023/05/26 13:46:15;;;;;;;21.42;7.85;;;;;;;;;;5078150;28;20048;-87
2023/05/26 13:48:45;;;;;;;15.50;4.95;;;;;;;;;;5096274;28;20064;-90
2023/05/26 13:51:13;;;;;;;14.75;5.60;;;;;;;;;;5094442;28;20048;-93
2023/05/26 13:53:41;;;;;;;18.33;4.88;;;;;;;;;;5094733;28;20051;-89
2023/05/26 13:56:08;;;;;;;12.00;3.30;;;;;;;;;;5106730;28;20051;-91
2023/05/26 13:58:52;;;;;;;16.83;6.22;;;;;;;;;;5094382;28;20139;-90
2023/05/26 14:01:23;;;;;;;14.10;4.60;;;;;;;;;;5094207;28;20051;-91
2023/05/26 14:04:04;;;;;;;17.70;5.47;;;;;;;;;;5093953;28;20044;-88
2023/05/26 14:06:34;;;;;;;12.77;5.47;;;;;;;;;;5093674;28;20056;-89
2023/05/26 14:09:03;;;;;;;17.38;3.92;;;;;;;;;;5093980;28;20047;-91
2023/05/26 14:11:31;;;;;;;36.72;17.00;;;;;;;;;;5098314;28;20068;-90
2023/05/26 14:13:58;;;;;;;19.50;6.13;;;;;;;;;;5096380;28;20850;-92
2023/05/26 14:16:25;;;;;;;20.73;5.55;;;;;;;;;;5093885;28;20134;-90
2023/05/26 14:18:52;;;;;;;20.08;7.55;;;;;;;;;;5092970;28;20381;-93
2023/05/26 14:21:32;;;;;;;24.13;4.80;;;;;;;;;;5094449;28;20071;-87
2023/05/26 14:24:20;;;;;;;11.10;3.33;;;;;;;;;;5097467;28;20048;-89
2023/05/26 14:26:47;;;;;;;11.38;4.15;;;;;;;;;;5097683;28;20123;-88
2023/05/26 14:29:15;;;;;;;9.65;3.17;;;;;;;;;;5097793;28;20063;-92
2023/05/26 14:31:42;;;;;;;10.80;3.70;;;;;;;;;;5097293;28;20052;-91
2023/05/26 14:34:09;;;;;;;12.15;3.95;;;;;;;;;;5096740;28;20448;-88
2023/05/26 14:36:37;;;;;;;12.68;3.67;;;;;;;;;;5096461;28;20052;-89